Search for airport 
image banner adimage banner adimage banner ad
image banner ad

IA03 - Blackberry Ridge

Located in Iowa City, United States

ICAO - IA03, IATA -

Data provided by Airmate  

General information

Coordinates: N41°41'36" W91°31'21"
Elevation is 713 feet MSL.
 
View others Airports in Iowa

Operational data

Special qualification required
Current time UTC:
Current local time:
Weather at : KIOW - Iowa City Muni ( 6 km )
METAR: KIOW 150952Z AUTO 00000KT 10SM CLR 16/12 A3008 RMK AO2 SLP182 T01560117
View NOTAMs / SUP AIP / TFR affecting this airport [VIEW]
Communications frequencies: [VIEW]

Runways:

Airport contact information

Address: Iowa City United States

Satellite view of IA03